createdAt,value
2022-12-06T00:01:34.754Z,8.80
2022-12-06T00:04:07.964Z,9.18
2022-12-06T00:06:48.107Z,9.77
2022-12-06T00:09:24.167Z,9.25
2022-12-06T00:11:52.569Z,8.90
2022-12-06T00:14:20.845Z,9.25
2022-12-06T00:16:48.750Z,9.48
2022-12-06T00:19:18.805Z,10.20
2022-12-06T00:24:16.859Z,9.90
2022-12-06T00:26:46.597Z,8.73
2022-12-06T00:29:17.162Z,9.90
2022-12-06T00:31:44.907Z,9.70
2022-12-06T00:34:12.214Z,9.85
2022-12-06T00:36:41.124Z,9.23
2022-12-06T00:39:14.717Z,9.73
2022-12-06T00:41:42.699Z,10.20
2022-12-06T00:44:10.940Z,9.60
2022-12-06T00:46:38.988Z,9.68
2022-12-06T00:49:07.619Z,9.38
2022-12-06T00:51:36.358Z,9.60
2022-12-06T00:54:04.437Z,9.52
2022-12-06T00:56:32.293Z,8.98
2022-12-06T00:58:59.593Z,9.43
2022-12-06T01:01:31.231Z,9.48
2022-12-06T01:04:01.684Z,9.27
2022-12-06T01:06:31.867Z,10.18
2022-12-06T01:09:01.684Z,9.07
2022-12-06T01:11:29.906Z,8.82
2022-12-06T01:13:57.800Z,8.63
2022-12-06T01:16:28.460Z,9.27
2022-12-06T01:18:58.613Z,8.75
2022-12-06T01:21:26.984Z,9.18
2022-12-06T01:23:54.523Z,8.63
2022-12-06T01:26:30.670Z,8.95
2022-12-06T01:28:59.334Z,10.27
2022-12-06T01:31:30.903Z,9.13
2022-12-06T01:34:03.086Z,8.95
2022-12-06T01:36:30.414Z,9.25
2022-12-06T01:39:01.103Z,8.73
2022-12-06T01:41:28.581Z,8.90
2022-12-06T01:43:56.655Z,8.68
2022-12-06T01:46:30.171Z,8.52
2022-12-06T01:49:12.777Z,8.93
2022-12-06T01:51:46.147Z,8.43
2022-12-06T01:54:16.301Z,8.65
2022-12-06T01:56:44.492Z,9.10
2022-12-06T01:59:12.848Z,8.57
2022-12-06T02:01:40.837Z,9.35
2022-12-06T02:04:09.158Z,8.68
2022-12-06T02:06:39.007Z,8.55
2022-12-06T02:09:07.882Z,8.75
2022-12-06T02:11:35.956Z,8.77
2022-12-06T02:14:05.802Z,8.35
2022-12-06T02:16:42.147Z,8.70
2022-12-06T02:19:35.751Z,8.50
2022-12-06T02:22:17.621Z,8.30
2022-12-06T02:25:03.105Z,8.35
2022-12-06T02:27:36.577Z,8.63
2022-12-06T02:30:27.757Z,8.15
2022-12-06T02:33:01.503Z,8.75
2022-12-06T02:35:48.347Z,7.90
2022-12-06T02:38:46.995Z,9.35
2022-12-06T02:41:44.104Z,8.55
2022-12-06T02:44:24.506Z,8.65
2022-12-06T02:46:55.592Z,8.73
2022-12-06T02:49:26.753Z,8.23
2022-12-06T02:51:54.827Z,8.27
2022-12-06T02:54:23.714Z,9.02
2022-12-06T02:56:51.068Z,10.05
2022-12-06T02:59:18.411Z,9.90
2022-12-06T03:01:50.094Z,9.70
2022-12-06T03:04:46.574Z,8.68
2022-12-06T03:07:25.910Z,8.80
2022-12-06T03:10:15.976Z,8.90
2022-12-06T03:13:07.367Z,8.27
2022-12-06T03:16:00.230Z,8.25
2022-12-06T03:18:39.566Z,7.75
2022-12-06T03:21:10.660Z,8.23
2022-12-06T03:23:42.326Z,8.43
2022-12-06T03:26:13.605Z,9.02
2022-12-06T03:28:42.674Z,10.23
2022-12-06T03:31:12.964Z,8.93
2022-12-06T03:33:45.675Z,9.00
2022-12-06T03:36:15.100Z,8.80
2022-12-06T03:39:16.298Z,9.10
2022-12-06T03:41:50.107Z,9.20
2022-12-06T03:44:17.594Z,9.18
2022-12-06T03:46:49.530Z,8.60
2022-12-06T03:49:20.738Z,8.68
2022-12-06T03:51:48.525Z,8.35
2022-12-06T03:54:16.300Z,8.45
2022-12-06T03:56:43.702Z,8.32
2022-12-06T03:59:11.813Z,8.18
2022-12-06T04:01:39.815Z,8.32
2022-12-06T04:04:07.332Z,7.72
2022-12-06T04:06:34.771Z,7.90
2022-12-06T04:09:20.550Z,8.10
2022-12-06T04:11:47.863Z,8.75
2022-12-06T04:14:15.376Z,8.93
2022-12-06T04:17:01.314Z,9.70
2022-12-06T04:19:28.721Z,9.48
2022-12-06T04:22:14.528Z,12.82
2022-12-06T04:24:41.826Z,11.00
2022-12-06T04:27:27.831Z,9.82
2022-12-06T04:30:14.106Z,9.38
2022-12-06T04:33:00.316Z,8.93
2022-12-06T04:35:46.183Z,9.07
2022-12-06T04:38:32.201Z,9.45
2022-12-06T04:40:59.478Z,9.23
2022-12-06T04:43:45.053Z,9.55
2022-12-06T04:46:15.700Z,9.23
2022-12-06T04:48:43.066Z,9.05
2022-12-06T04:51:13.014Z,9.35
2022-12-06T04:53:40.437Z,10.00
2022-12-06T04:56:08.176Z,8.75
2022-12-06T04:58:35.598Z,8.18
2022-12-06T05:01:03.563Z,8.80
2022-12-06T05:03:31.048Z,8.05
2022-12-06T05:05:58.487Z,8.30
2022-12-06T05:08:25.872Z,8.25
2022-12-06T05:10:53.217Z,8.65
2022-12-06T05:13:21.370Z,8.30
2022-12-06T05:16:06.699Z,8.82
2022-12-06T05:18:34.494Z,8.60
2022-12-06T05:21:07.399Z,10.13
2022-12-06T05:23:35.511Z,10.35
2022-12-06T05:26:06.015Z,9.32
2022-12-06T05:28:34.853Z,10.05
2022-12-06T05:31:02.537Z,8.90
2022-12-06T05:33:29.913Z,8.80
2022-12-06T05:35:57.814Z,8.85
2022-12-06T05:38:25.905Z,9.80
2022-12-06T05:40:53.195Z,10.25
2022-12-06T05:43:20.478Z,11.77
2022-12-06T05:45:53.354Z,14.73
2022-12-06T05:48:21.018Z,13.13
2022-12-06T05:50:49.207Z,11.00
2022-12-06T05:53:17.430Z,12.00
2022-12-06T05:55:44.793Z,10.73
2022-12-06T05:58:13.771Z,10.20
2022-12-06T06:00:41.295Z,10.82
2022-12-06T06:03:08.808Z,10.20
2022-12-06T06:05:36.377Z,11.02
2022-12-06T06:08:04.058Z,10.77
2022-12-06T06:10:31.450Z,11.45
2022-12-06T06:12:58.754Z,10.45
2022-12-06T06:15:26.208Z,35.85
2022-12-06T06:17:53.651Z,15.73
2022-12-06T06:20:21.117Z,12.25
2022-12-06T06:22:48.446Z,11.77
2022-12-06T06:25:15.842Z,11.00
2022-12-06T06:27:43.166Z,10.15
2022-12-06T06:30:12.129Z,10.90
2022-12-06T06:32:39.514Z,11.23
2022-12-06T06:35:07.595Z,11.63
2022-12-06T06:37:35.220Z,10.77
2022-12-06T06:40:03.084Z,13.30
2022-12-06T06:42:30.716Z,13.23
2022-12-06T06:44:58.024Z,17.70
2022-12-06T06:47:25.705Z,17.52
2022-12-06T06:49:53.034Z,18.10
2022-12-06T06:52:20.346Z,20.50
2022-12-06T06:54:47.649Z,21.70
2022-12-06T06:57:17.843Z,20.67
2022-12-06T06:59:45.990Z,20.63
2022-12-06T07:02:14.892Z,20.95
2022-12-06T07:04:42.437Z,19.65
2022-12-06T07:07:09.878Z,22.58
2022-12-06T07:09:38.156Z,27.45
2022-12-06T07:12:05.608Z,26.33
2022-12-06T07:14:33.200Z,24.25
2022-12-06T07:17:00.682Z,23.27
2022-12-06T07:19:28.038Z,22.08
2022-12-06T07:21:55.502Z,22.10
2022-12-06T07:24:22.880Z,22.92
2022-12-06T07:26:50.185Z,20.73
2022-12-06T07:29:18.675Z,19.73
2022-12-06T07:31:46.011Z,21.40
2022-12-06T07:34:13.290Z,19.92
2022-12-06T07:36:40.669Z,20.98
2022-12-06T07:39:14.272Z,21.75
2022-12-06T07:42:00.887Z,19.60
2022-12-06T07:45:01.890Z,20.50
2022-12-06T07:47:41.559Z,18.95
2022-12-06T07:50:17.609Z,22.58
2022-12-06T07:52:47.334Z,25.63
2022-12-06T07:55:15.868Z,24.98
2022-12-06T07:57:44.226Z,26.65
2022-12-06T08:00:14.437Z,25.60
2022-12-06T08:02:42.639Z,24.73
2022-12-06T08:05:10.754Z,26.27
2022-12-06T08:07:38.755Z,26.67
2022-12-06T08:10:06.856Z,22.45
2022-12-06T08:12:34.335Z,22.27
2022-12-06T08:15:01.766Z,20.35
2022-12-06T08:17:30.488Z,21.88
2022-12-06T08:19:58.145Z,22.27
2022-12-06T08:22:25.763Z,20.45
2022-12-06T08:24:53.199Z,22.60
2022-12-06T08:27:20.617Z,23.40
2022-12-06T08:29:47.920Z,21.98
2022-12-06T08:32:15.230Z,25.15
2022-12-06T08:34:43.817Z,31.80
2022-12-06T08:37:12.547Z,41.85
2022-12-06T08:39:39.859Z,28.90
2022-12-06T08:42:08.097Z,32.10
2022-12-06T08:44:36.460Z,33.75
2022-12-06T08:47:04.646Z,34.53
2022-12-06T08:49:32.147Z,37.33
2022-12-06T08:52:00.283Z,34.42
2022-12-06T08:54:28.230Z,42.35
2022-12-06T08:56:55.999Z,43.67
2022-12-06T08:59:24.130Z,46.97
2022-12-06T09:01:51.741Z,44.03
2022-12-06T09:04:19.225Z,52.20
2022-12-06T09:06:46.922Z,40.05
2022-12-06T09:09:16.386Z,37.80
2022-12-06T09:11:45.218Z,37.63
2022-12-06T09:14:21.056Z,38.38
2022-12-06T09:16:52.413Z,36.58
2022-12-06T09:19:20.821Z,47.05
2022-12-06T09:21:48.232Z,34.20
2022-12-06T09:24:17.442Z,32.08
2022-12-06T09:26:44.978Z,34.88
2022-12-06T09:29:13.020Z,33.45
2022-12-06T09:31:41.019Z,30.65
2022-12-06T09:34:09.370Z,29.45
2022-12-06T09:36:44.903Z,28.50
2022-12-06T09:39:18.648Z,28.48
2022-12-06T09:42:23.212Z,28.30
2022-12-06T09:45:10.779Z,34.45
2022-12-06T09:48:08.183Z,35.20
2022-12-06T09:51:00.107Z,33.47
2022-12-06T09:53:42.637Z,32.03
2022-12-06T09:56:26.398Z,29.33
2022-12-06T09:59:03.380Z,25.73
2022-12-06T10:01:53.811Z,23.30
2022-12-06T10:04:39.694Z,22.60
2022-12-06T10:07:19.451Z,23.70
2022-12-06T10:10:10.202Z,21.58
2022-12-06T10:12:50.074Z,23.20
2022-12-06T10:15:46.939Z,23.63
2022-12-06T10:18:23.417Z,22.45
2022-12-06T10:21:08.764Z,21.42
2022-12-06T10:23:44.842Z,18.95
2022-12-06T10:26:24.524Z,16.58
2022-12-06T10:28:57.857Z,15.75
2022-12-06T10:31:32.536Z,15.35
2022-12-06T10:34:14.836Z,16.38
2022-12-06T10:36:53.506Z,18.08
2022-12-06T10:39:40.741Z,13.80
2022-12-06T10:42:21.809Z,15.02
2022-12-06T10:44:57.032Z,15.50
2022-12-06T10:47:33.856Z,19.75
2022-12-06T10:50:14.383Z,12.45
2022-12-06T10:52:50.828Z,24.08
2022-12-06T10:55:26.375Z,10.75
2022-12-06T10:57:59.773Z,11.80
2022-12-06T11:00:30.744Z,11.45
2022-12-06T11:03:11.550Z,12.52
2022-12-06T11:05:44.280Z,11.75
2022-12-06T11:08:24.174Z,31.98
2022-12-06T11:13:24.166Z,33.05
2022-12-06T11:15:57.621Z,10.52
2022-12-06T11:18:29.650Z,10.23
2022-12-06T11:21:00.648Z,10.60
2022-12-06T11:23:36.655Z,9.98
2022-12-06T11:26:51.559Z,9.85
2022-12-06T11:29:19.486Z,8.43
2022-12-06T11:31:53.660Z,8.38
2022-12-06T11:34:31.133Z,7.53
2022-12-06T11:37:00.571Z,8.52
2022-12-06T11:39:29.739Z,8.52
2022-12-06T11:42:00.685Z,6.65
2022-12-06T11:44:49.902Z,8.63
2022-12-06T11:47:21.910Z,7.90
2022-12-06T11:49:52.524Z,8.07
2022-12-06T11:52:28.054Z,7.57
2022-12-06T11:55:02.015Z,7.53
2022-12-06T11:57:38.662Z,7.85
2022-12-06T12:00:14.201Z,7.15
2022-12-06T12:02:43.786Z,7.78
2022-12-06T12:05:20.749Z,8.23
2022-12-06T12:08:18.233Z,7.43
2022-12-06T12:10:57.102Z,7.00
2022-12-06T12:13:43.238Z,7.82
2022-12-06T12:16:16.784Z,7.93
2022-12-06T12:19:00.452Z,7.10
2022-12-06T12:21:40.037Z,7.70
2022-12-06T12:25:03.309Z,7.50
2022-12-06T12:27:38.826Z,7.50
2022-12-06T12:30:15.478Z,7.93
2022-12-06T12:32:44.849Z,7.00
2022-12-06T12:35:43.159Z,7.72
2022-12-06T12:38:10.539Z,7.45
2022-12-06T12:40:45.563Z,6.88
2022-12-06T12:43:12.785Z,6.82
2022-12-06T12:46:02.770Z,7.43
2022-12-06T12:48:30.796Z,8.00
2022-12-06T12:51:02.741Z,7.75
2022-12-06T12:53:32.693Z,8.10
2022-12-06T12:56:13.429Z,7.85
2022-12-06T12:58:42.888Z,6.53
2022-12-06T13:01:25.481Z,6.75
2022-12-06T13:04:04.973Z,5.55
2022-12-06T13:06:54.771Z,8.07
2022-12-06T13:09:27.035Z,6.47
2022-12-06T13:12:01.841Z,6.43
2022-12-06T13:14:30.583Z,7.93
2022-12-06T13:17:03.692Z,6.45
2022-12-06T13:19:40.791Z,5.97
2022-12-06T13:22:16.546Z,6.78
2022-12-06T13:24:45.457Z,6.63
2022-12-06T13:27:16.785Z,6.88
2022-12-06T13:30:17.256Z,6.82
2022-12-06T13:32:50.562Z,6.40
2022-12-06T13:35:35.014Z,7.80
2022-12-06T13:38:26.677Z,8.65
2022-12-06T13:40:56.922Z,6.53
2022-12-06T13:43:24.185Z,6.85
2022-12-06T13:46:26.440Z,6.50
2022-12-06T13:48:58.072Z,6.90
2022-12-06T13:51:31.685Z,6.43
2022-12-06T13:54:05.304Z,6.45
2022-12-06T13:56:32.702Z,6.07
2022-12-06T13:59:15.902Z,5.95
2022-12-06T14:01:46.443Z,6.22
2022-12-06T14:07:02.808Z,10.00
2022-12-06T14:09:38.061Z,10.10
2022-12-06T14:12:26.505Z,7.90
2022-12-06T14:15:02.239Z,5.72
2022-12-06T14:20:30.482Z,5.57
2022-12-06T14:22:58.501Z,5.40
2022-12-06T14:25:28.747Z,5.57
2022-12-06T14:28:06.446Z,5.32
2022-12-06T14:30:34.350Z,5.13
2022-12-06T14:33:01.828Z,5.45
2022-12-06T14:35:36.195Z,6.35
2022-12-06T14:38:21.201Z,5.80
2022-12-06T14:41:07.749Z,5.93
2022-12-06T14:43:35.558Z,5.90
2022-12-06T14:46:06.327Z,9.30
2022-12-06T14:48:53.095Z,8.55
2022-12-06T14:51:34.678Z,9.15
2022-12-06T14:54:26.999Z,7.50
2022-12-06T14:56:54.342Z,7.70
2022-12-06T15:00:03.026Z,7.18
2022-12-06T15:02:27.160Z,7.22
2022-12-06T15:04:55.013Z,8.93
2022-12-06T15:07:40.967Z,7.95
2022-12-06T15:10:09.735Z,55.15
2022-12-06T15:12:55.495Z,25.20
2022-12-06T15:15:39.576Z,16.10
2022-12-06T15:18:16.082Z,19.10
2022-12-06T15:20:43.383Z,21.15
2022-12-06T15:23:28.949Z,27.95
2022-12-06T15:25:56.550Z,19.75
2022-12-06T15:28:24.238Z,16.27
2022-12-06T15:30:51.866Z,21.85
2022-12-06T15:33:22.954Z,29.65
2022-12-06T15:35:51.116Z,14.23
2022-12-06T15:38:18.557Z,25.92
2022-12-06T15:40:49.491Z,19.45
2022-12-06T15:43:25.119Z,18.70
2022-12-06T15:45:53.994Z,70.95
2022-12-06T15:48:21.328Z,27.55
2022-12-06T15:50:49.112Z,22.40
2022-12-06T15:53:19.470Z,27.30
2022-12-06T15:55:46.878Z,22.15
2022-12-06T15:58:14.203Z,22.13
2022-12-06T16:00:41.521Z,20.13
2022-12-06T16:03:09.032Z,15.63
2022-12-06T16:05:36.314Z,25.70
2022-12-06T16:08:04.012Z,26.17
2022-12-06T16:11:03.067Z,34.13
2022-12-06T16:13:21.642Z,56.38
2022-12-06T16:15:50.790Z,40.75
2022-12-06T16:18:18.279Z,34.72
2022-12-06T16:20:45.829Z,49.08
2022-12-06T16:24:04.604Z,28.92
2022-12-06T16:26:24.158Z,12.52
2022-12-06T16:28:51.510Z,15.02
2022-12-06T16:31:18.933Z,16.70
2022-12-06T16:33:46.320Z,28.45
2022-12-06T16:36:31.310Z,49.67
2022-12-06T16:39:02.224Z,54.70
2022-12-06T16:41:33.291Z,33.05
2022-12-06T16:44:01.323Z,41.55
2022-12-06T16:46:34.399Z,47.20
2022-12-06T16:49:36.692Z,28.25
2022-12-06T16:51:51.935Z,24.40
2022-12-06T16:54:19.474Z,25.27
2022-12-06T16:56:46.817Z,24.58
2022-12-06T16:59:15.818Z,45.72
2022-12-06T17:01:50.961Z,36.00
2022-12-06T17:04:18.755Z,24.98
2022-12-06T17:06:47.048Z,104.65
2022-12-06T17:09:14.900Z,117.93
2022-12-06T17:12:00.933Z,112.47
2022-12-06T17:14:28.485Z,48.65
2022-12-06T17:16:57.021Z,38.13
2022-12-06T17:19:28.213Z,52.97
2022-12-06T17:21:55.944Z,59.90
2022-12-06T17:24:25.937Z,91.13
2022-12-06T17:29:24.033Z,17.95
2022-12-06T17:31:52.270Z,25.08
2022-12-06T17:34:20.331Z,29.15
2022-12-06T17:36:49.032Z,54.65
2022-12-06T17:39:18.618Z,65.25
2022-12-06T17:42:05.162Z,66.63
2022-12-06T17:44:34.010Z,65.35
2022-12-06T17:47:02.051Z,38.90
2022-12-06T17:49:29.551Z,45.58
2022-12-06T17:51:57.245Z,53.92
2022-12-06T17:54:24.841Z,45.97
2022-12-06T17:56:53.898Z,36.50
2022-12-06T17:59:23.444Z,34.08
2022-12-06T18:02:14.818Z,31.17
2022-12-06T18:04:39.550Z,32.28
2022-12-06T18:07:07.305Z,32.60
2022-12-06T18:09:34.669Z,32.55
2022-12-06T18:12:02.396Z,32.10
2022-12-06T18:14:29.779Z,30.02
2022-12-06T18:16:57.219Z,26.40
2022-12-06T18:19:24.540Z,34.70
2022-12-06T18:21:53.169Z,33.97
2022-12-06T18:24:23.873Z,30.60
2022-12-06T18:35:41.998Z,42.08
2022-12-06T18:59:27.606Z,20.13
2022-12-06T19:01:56.001Z,37.42
2022-12-06T19:04:23.382Z,109.93
2022-12-06T19:06:50.754Z,29.17
2022-12-06T19:09:18.689Z,26.15
2022-12-06T19:11:46.528Z,31.70
2022-12-06T19:14:14.865Z,57.08
2022-12-06T19:16:45.546Z,34.78
2022-12-06T19:19:18.952Z,34.65
2022-12-06T19:21:47.519Z,28.48
2022-12-06T19:24:18.117Z,29.40
2022-12-06T19:26:45.544Z,32.83
2022-12-06T19:29:15.554Z,29.25
2022-12-06T19:31:43.375Z,33.55
2022-12-06T19:34:19.509Z,27.25
2022-12-06T19:36:48.350Z,46.13
2022-12-06T19:39:16.293Z,51.17
2022-12-06T19:42:02.811Z,51.80
2022-12-06T19:44:30.764Z,48.92
2022-12-06T19:46:58.187Z,40.63
2022-12-06T19:49:26.740Z,18.10
2022-12-06T19:51:54.326Z,21.92
2022-12-06T19:54:24.890Z,107.60
2022-12-06T19:56:54.472Z,213.15
2022-12-06T19:59:22.948Z,84.97
2022-12-06T20:01:52.748Z,65.45
2022-12-06T20:04:49.282Z,36.88
2022-12-06T20:07:16.663Z,53.80
2022-12-06T20:09:44.233Z,33.17
2022-12-06T20:12:13.199Z,24.67
2022-12-06T20:14:46.061Z,20.37
2022-12-06T20:17:16.498Z,38.78
2022-12-06T20:19:46.172Z,36.13
2022-12-06T20:22:14.601Z,42.13
2022-12-06T20:24:42.374Z,34.17
2022-12-06T20:27:10.111Z,37.78
2022-12-06T20:29:37.659Z,33.30
2022-12-06T20:32:05.706Z,30.63
2022-12-06T20:34:34.923Z,27.65
2022-12-06T20:37:04.693Z,23.23
2022-12-06T20:39:36.429Z,26.05
2022-12-06T20:42:06.899Z,39.13
2022-12-06T20:44:35.233Z,45.15
2022-12-06T20:47:02.863Z,39.50
2022-12-06T20:49:30.236Z,26.73
2022-12-06T20:51:59.637Z,23.02
2022-12-06T20:54:26.916Z,13.27
2022-12-06T20:56:54.225Z,18.75
2022-12-06T20:59:21.592Z,18.40
2022-12-06T21:01:49.369Z,23.00
2022-12-06T21:04:17.491Z,26.45
2022-12-06T21:06:44.886Z,32.88
2022-12-06T21:09:12.284Z,39.88
2022-12-06T21:11:39.600Z,44.90
2022-12-06T21:14:06.919Z,61.85
2022-12-06T21:16:35.238Z,29.52
2022-12-06T21:19:09.334Z,43.83
2022-12-06T21:21:39.880Z,54.15
2022-12-06T21:24:11.393Z,57.03
2022-12-06T21:26:38.933Z,81.25
2022-12-06T21:29:06.749Z,44.38
2022-12-06T21:31:36.858Z,46.00
2022-12-06T21:34:05.518Z,57.38
2022-12-06T21:36:33.338Z,59.85
2022-12-06T21:39:00.954Z,75.43
2022-12-06T21:41:28.351Z,34.92
2022-12-06T21:43:55.731Z,34.22
2022-12-06T21:46:26.473Z,48.25
2022-12-06T21:48:59.499Z,42.60
2022-12-06T21:51:29.206Z,41.38
2022-12-06T21:53:57.460Z,42.95
2022-12-06T21:56:27.362Z,39.15
2022-12-06T22:01:25.046Z,27.60
2022-12-06T22:03:54.535Z,20.02
2022-12-06T22:06:22.577Z,18.63
2022-12-06T22:08:57.689Z,31.00
2022-12-06T22:11:25.290Z,64.45
2022-12-06T22:13:52.586Z,44.60
2022-12-06T22:16:19.977Z,32.63
2022-12-06T22:18:47.507Z,28.00
2022-12-06T22:21:18.110Z,24.00
2022-12-06T22:23:46.333Z,21.83
2022-12-06T22:26:18.901Z,22.15
2022-12-06T22:28:47.606Z,22.42
2022-12-06T22:31:21.122Z,23.25
2022-12-06T22:33:49.607Z,18.67
2022-12-06T22:36:18.115Z,17.00
2022-12-06T22:38:49.756Z,35.67
2022-12-06T22:41:17.677Z,88.63
2022-12-06T22:43:45.683Z,135.07
2022-12-06T22:46:15.512Z,36.00
2022-12-06T22:51:20.735Z,42.33
2022-12-06T22:53:52.840Z,101.78
2022-12-06T22:56:20.370Z,69.53
2022-12-06T22:58:50.691Z,46.13
2022-12-06T23:01:20.461Z,46.72
2022-12-06T23:03:50.374Z,41.15
2022-12-06T23:08:46.491Z,31.52
2022-12-06T23:11:28.992Z,33.17
2022-12-06T23:13:57.464Z,34.60
2022-12-06T23:16:29.767Z,38.53
2022-12-06T23:18:58.850Z,38.05
2022-12-06T23:21:29.482Z,40.53
2022-12-06T23:24:05.994Z,36.58
2022-12-06T23:26:51.821Z,37.63
2022-12-06T23:29:22.047Z,35.65
2022-12-06T23:31:49.556Z,33.85
2022-12-06T23:34:26.708Z,38.30
2022-12-06T23:36:54.857Z,28.02
2022-12-06T23:39:22.207Z,38.78
2022-12-06T23:41:49.879Z,35.08
2022-12-06T23:44:17.201Z,33.70
2022-12-06T23:46:45.821Z,31.85
2022-12-06T23:49:19.343Z,34.55
2022-12-06T23:51:47.538Z,31.70
2022-12-06T23:54:17.039Z,31.38
2022-12-06T23:56:44.773Z,45.33
2022-12-06T23:59:14.664Z,45.08
